sensor_id;sensor_type;location;lat;lon;timestamp;P1;durP1;ratioP1;P2;durP2;ratioP2
12334;SDS011;6233;51.560;9.986;2022-12-18T00:00:06;6.57;;;4.60;;
12334;SDS011;6233;51.560;9.986;2022-12-18T00:03:08;4.90;;;3.83;;
12334;SDS011;6233;51.560;9.986;2022-12-18T00:06:11;5.43;;;4.73;;
12334;SDS011;6233;51.560;9.986;2022-12-18T00:09:15;5.80;;;4.47;;
12334;SDS011;6233;51.560;9.986;2022-12-18T00:12:17;5.33;;;4.77;;
12334;SDS011;6233;51.560;9.986;2022-12-18T00:15:19;4.87;;;4.30;;
12334;SDS011;6233;51.560;9.986;2022-12-18T00:18:20;4.87;;;4.37;;
12334;SDS011;6233;51.560;9.986;2022-12-18T00:21:22;7.53;;;4.70;;
12334;SDS011;6233;51.560;9.986;2022-12-18T00:24:24;4.73;;;3.87;;
12334;SDS011;6233;51.560;9.986;2022-12-18T00:27:26;4.73;;;3.97;;
12334;SDS011;6233;51.560;9.986;2022-12-18T00:30:27;5.60;;;4.30;;
12334;SDS011;6233;51.560;9.986;2022-12-18T00:33:29;7.07;;;5.13;;
12334;SDS011;6233;51.560;9.986;2022-12-18T00:36:33;6.53;;;4.80;;
12334;SDS011;6233;51.560;9.986;2022-12-18T00:39:36;8.07;;;5.73;;
12334;SDS011;6233;51.560;9.986;2022-12-18T00:42:37;7.83;;;5.00;;
12334;SDS011;6233;51.560;9.986;2022-12-18T00:45:57;6.43;;;4.90;;
12334;SDS011;6233;51.560;9.986;2022-12-18T00:48:59;7.63;;;4.87;;
12334;SDS011;6233;51.560;9.986;2022-12-18T00:52:00;6.47;;;5.20;;
12334;SDS011;6233;51.560;9.986;2022-12-18T00:55:02;6.37;;;4.57;;
12334;SDS011;6233;51.560;9.986;2022-12-18T00:58:07;7.57;;;4.60;;
12334;SDS011;6233;51.560;9.986;2022-12-18T01:01:09;4.00;;;3.60;;
12334;SDS011;6233;51.560;9.986;2022-12-18T01:04:11;6.03;;;3.93;;
12334;SDS011;6233;51.560;9.986;2022-12-18T01:07:13;5.27;;;3.73;;
12334;SDS011;6233;51.560;9.986;2022-12-18T01:10:15;6.67;;;4.63;;
12334;SDS011;6233;51.560;9.986;2022-12-18T01:13:16;5.13;;;4.10;;
12334;SDS011;6233;51.560;9.986;2022-12-18T01:16:18;6.73;;;4.93;;
12334;SDS011;6233;51.560;9.986;2022-12-18T01:19:21;5.30;;;3.90;;
12334;SDS011;6233;51.560;9.986;2022-12-18T01:22:24;5.73;;;4.37;;
12334;SDS011;6233;51.560;9.986;2022-12-18T01:25:29;4.90;;;4.37;;
12334;SDS011;6233;51.560;9.986;2022-12-18T01:28:30;4.87;;;4.37;;
12334;SDS011;6233;51.560;9.986;2022-12-18T01:31:33;4.77;;;4.00;;
12334;SDS011;6233;51.560;9.986;2022-12-18T01:34:36;4.87;;;4.37;;
12334;SDS011;6233;51.560;9.986;2022-12-18T01:37:38;6.97;;;4.37;;
12334;SDS011;6233;51.560;9.986;2022-12-18T01:40:40;7.03;;;4.53;;
12334;SDS011;6233;51.560;9.986;2022-12-18T01:43:42;5.90;;;4.87;;
12334;SDS011;6233;51.560;9.986;2022-12-18T01:46:55;5.87;;;4.50;;
12334;SDS011;6233;51.560;9.986;2022-12-18T01:49:58;7.17;;;5.30;;
12334;SDS011;6233;51.560;9.986;2022-12-18T01:53:05;4.80;;;4.13;;
12334;SDS011;6233;51.560;9.986;2022-12-18T01:56:17;6.10;;;4.83;;
12334;SDS011;6233;51.560;9.986;2022-12-18T01:59:20;5.47;;;4.30;;
12334;SDS011;6233;51.560;9.986;2022-12-18T02:02:23;4.57;;;4.03;;
12334;SDS011;6233;51.560;9.986;2022-12-18T02:08:52;5.60;;;4.57;;
12334;SDS011;6233;51.560;9.986;2022-12-18T02:15:23;5.07;;;4.37;;
12334;SDS011;6233;51.560;9.986;2022-12-18T02:18:36;5.33;;;4.27;;
12334;SDS011;6233;51.560;9.986;2022-12-18T02:21:49;5.67;;;4.60;;
12334;SDS011;6233;51.560;9.986;2022-12-18T02:28:49;6.53;;;4.97;;
12334;SDS011;6233;51.560;9.986;2022-12-18T02:31:53;6.03;;;4.37;;
12334;SDS011;6233;51.560;9.986;2022-12-18T02:34:58;5.13;;;4.43;;
12334;SDS011;6233;51.560;9.986;2022-12-18T02:38:03;6.97;;;3.97;;
12334;SDS011;6233;51.560;9.986;2022-12-18T02:41:05;5.70;;;4.20;;
12334;SDS011;6233;51.560;9.986;2022-12-18T02:44:11;6.23;;;4.40;;
12334;SDS011;6233;51.560;9.986;2022-12-18T02:47:15;6.63;;;4.13;;
12334;SDS011;6233;51.560;9.986;2022-12-18T02:50:22;8.00;;;5.03;;
12334;SDS011;6233;51.560;9.986;2022-12-18T02:53:57;6.73;;;4.37;;
12334;SDS011;6233;51.560;9.986;2022-12-18T02:57:11;6.33;;;4.03;;
12334;SDS011;6233;51.560;9.986;2022-12-18T03:03:47;5.03;;;4.43;;
12334;SDS011;6233;51.560;9.986;2022-12-18T03:07:00;5.83;;;4.00;;
12334;SDS011;6233;51.560;9.986;2022-12-18T03:10:06;7.07;;;4.90;;
12334;SDS011;6233;51.560;9.986;2022-12-18T03:13:21;5.10;;;4.57;;
12334;SDS011;6233;51.560;9.986;2022-12-18T03:16:29;7.87;;;5.13;;
12334;SDS011;6233;51.560;9.986;2022-12-18T03:19:35;6.93;;;4.50;;
12334;SDS011;6233;51.560;9.986;2022-12-18T03:22:37;5.50;;;4.93;;
12334;SDS011;6233;51.560;9.986;2022-12-18T03:25:41;6.57;;;4.87;;
12334;SDS011;6233;51.560;9.986;2022-12-18T03:28:50;5.73;;;4.17;;
12334;SDS011;6233;51.560;9.986;2022-12-18T03:31:55;5.60;;;4.40;;
12334;SDS011;6233;51.560;9.986;2022-12-18T03:35:04;4.50;;;4.10;;
12334;SDS011;6233;51.560;9.986;2022-12-18T03:38:07;4.97;;;4.47;;
12334;SDS011;6233;51.560;9.986;2022-12-18T03:41:21;8.33;;;4.70;;
12334;SDS011;6233;51.560;9.986;2022-12-18T03:44:52;8.43;;;5.03;;
12334;SDS011;6233;51.560;9.986;2022-12-18T03:51:49;7.00;;;4.80;;
12334;SDS011;6233;51.560;9.986;2022-12-18T03:55:15;8.17;;;6.10;;
12334;SDS011;6233;51.560;9.986;2022-12-18T03:58:19;7.03;;;5.00;;
12334;SDS011;6233;51.560;9.986;2022-12-18T04:01:31;7.00;;;4.47;;
12334;SDS011;6233;51.560;9.986;2022-12-18T04:04:39;8.40;;;5.67;;
12334;SDS011;6233;51.560;9.986;2022-12-18T04:07:43;6.60;;;4.93;;
12334;SDS011;6233;51.560;9.986;2022-12-18T04:10:47;6.83;;;5.73;;
12334;SDS011;6233;51.560;9.986;2022-12-18T04:13:49;5.80;;;5.20;;
12334;SDS011;6233;51.560;9.986;2022-12-18T04:16:51;6.83;;;4.33;;
12334;SDS011;6233;51.560;9.986;2022-12-18T04:19:52;6.77;;;4.93;;
12334;SDS011;6233;51.560;9.986;2022-12-18T04:22:54;5.57;;;4.53;;
12334;SDS011;6233;51.560;9.986;2022-12-18T04:25:56;7.53;;;4.30;;
12334;SDS011;6233;51.560;9.986;2022-12-18T04:28:58;8.03;;;5.47;;
12334;SDS011;6233;51.560;9.986;2022-12-18T04:31:59;6.87;;;4.80;;
12334;SDS011;6233;51.560;9.986;2022-12-18T04:35:01;6.43;;;4.63;;
12334;SDS011;6233;51.560;9.986;2022-12-18T04:38:05;5.03;;;4.27;;
12334;SDS011;6233;51.560;9.986;2022-12-18T04:41:09;5.47;;;4.40;;
12334;SDS011;6233;51.560;9.986;2022-12-18T04:44:11;6.73;;;4.67;;
12334;SDS011;6233;51.560;9.986;2022-12-18T04:47:12;5.63;;;4.37;;
12334;SDS011;6233;51.560;9.986;2022-12-18T04:50:14;7.50;;;4.93;;
12334;SDS011;6233;51.560;9.986;2022-12-18T04:53:16;7.50;;;4.97;;
12334;SDS011;6233;51.560;9.986;2022-12-18T04:56:17;5.80;;;4.73;;
12334;SDS011;6233;51.560;9.986;2022-12-18T04:59:19;6.03;;;4.37;;
12334;SDS011;6233;51.560;9.986;2022-12-18T05:02:21;6.83;;;5.37;;
12334;SDS011;6233;51.560;9.986;2022-12-18T05:05:23;7.70;;;4.93;;
12334;SDS011;6233;51.560;9.986;2022-12-18T05:08:24;7.07;;;5.63;;
12334;SDS011;6233;51.560;9.986;2022-12-18T05:11:27;10.67;;;5.17;;
12334;SDS011;6233;51.560;9.986;2022-12-18T05:14:28;7.13;;;4.93;;
12334;SDS011;6233;51.560;9.986;2022-12-18T05:17:30;8.97;;;5.17;;
12334;SDS011;6233;51.560;9.986;2022-12-18T05:20:32;7.60;;;5.20;;
12334;SDS011;6233;51.560;9.986;2022-12-18T05:23:34;8.57;;;5.27;;
12334;SDS011;6233;51.560;9.986;2022-12-18T05:26:36;7.63;;;5.10;;
12334;SDS011;6233;51.560;9.986;2022-12-18T05:29:38;7.53;;;5.20;;
12334;SDS011;6233;51.560;9.986;2022-12-18T05:32:39;6.70;;;5.47;;
12334;SDS011;6233;51.560;9.986;2022-12-18T05:35:42;7.20;;;4.70;;
12334;SDS011;6233;51.560;9.986;2022-12-18T05:38:44;7.60;;;5.27;;
12334;SDS011;6233;51.560;9.986;2022-12-18T05:41:45;7.47;;;5.33;;
12334;SDS011;6233;51.560;9.986;2022-12-18T05:44:47;5.43;;;4.33;;
12334;SDS011;6233;51.560;9.986;2022-12-18T05:47:49;7.67;;;5.03;;
12334;SDS011;6233;51.560;9.986;2022-12-18T05:50:50;5.87;;;4.70;;
12334;SDS011;6233;51.560;9.986;2022-12-18T05:53:52;7.80;;;4.40;;
12334;SDS011;6233;51.560;9.986;2022-12-18T05:56:54;5.97;;;4.43;;
12334;SDS011;6233;51.560;9.986;2022-12-18T05:59:56;5.07;;;3.70;;
12334;SDS011;6233;51.560;9.986;2022-12-18T06:02:58;8.80;;;4.70;;
12334;SDS011;6233;51.560;9.986;2022-12-18T06:06:00;6.97;;;5.03;;
12334;SDS011;6233;51.560;9.986;2022-12-18T06:09:02;6.50;;;4.33;;
12334;SDS011;6233;51.560;9.986;2022-12-18T06:12:09;6.70;;;5.00;;
12334;SDS011;6233;51.560;9.986;2022-12-18T06:15:11;9.07;;;4.87;;
12334;SDS011;6233;51.560;9.986;2022-12-18T06:18:14;7.10;;;4.47;;
12334;SDS011;6233;51.560;9.986;2022-12-18T06:21:15;8.00;;;4.93;;
12334;SDS011;6233;51.560;9.986;2022-12-18T06:24:17;10.30;;;4.67;;
12334;SDS011;6233;51.560;9.986;2022-12-18T06:27:19;6.70;;;4.47;;
12334;SDS011;6233;51.560;9.986;2022-12-18T06:30:21;4.70;;;3.70;;
12334;SDS011;6233;51.560;9.986;2022-12-18T06:33:25;4.60;;;4.00;;
12334;SDS011;6233;51.560;9.986;2022-12-18T06:36:29;4.20;;;3.80;;
12334;SDS011;6233;51.560;9.986;2022-12-18T06:39:31;4.73;;;3.57;;
12334;SDS011;6233;51.560;9.986;2022-12-18T06:42:33;6.10;;;3.87;;
12334;SDS011;6233;51.560;9.986;2022-12-18T06:45:34;5.53;;;4.17;;
12334;SDS011;6233;51.560;9.986;2022-12-18T06:48:36;6.10;;;3.50;;
12334;SDS011;6233;51.560;9.986;2022-12-18T06:51:38;4.90;;;3.60;;
12334;SDS011;6233;51.560;9.986;2022-12-18T06:54:40;5.63;;;3.77;;
12334;SDS011;6233;51.560;9.986;2022-12-18T06:57:42;5.60;;;4.40;;
12334;SDS011;6233;51.560;9.986;2022-12-18T07:00:43;4.43;;;3.70;;
12334;SDS011;6233;51.560;9.986;2022-12-18T07:03:45;4.77;;;3.87;;
12334;SDS011;6233;51.560;9.986;2022-12-18T07:06:48;4.50;;;3.60;;
12334;SDS011;6233;51.560;9.986;2022-12-18T07:09:50;7.17;;;3.77;;
12334;SDS011;6233;51.560;9.986;2022-12-18T07:12:52;4.60;;;3.27;;
12334;SDS011;6233;51.560;9.986;2022-12-18T07:15:54;6.17;;;4.17;;
12334;SDS011;6233;51.560;9.986;2022-12-18T07:18:55;5.50;;;3.77;;
12334;SDS011;6233;51.560;9.986;2022-12-18T07:21:57;7.23;;;4.97;;
12334;SDS011;6233;51.560;9.986;2022-12-18T07:24:59;5.10;;;4.13;;
12334;SDS011;6233;51.560;9.986;2022-12-18T07:28:01;5.40;;;4.27;;
12334;SDS011;6233;51.560;9.986;2022-12-18T07:31:04;5.13;;;3.93;;
12334;SDS011;6233;51.560;9.986;2022-12-18T07:34:12;4.60;;;3.70;;
12334;SDS011;6233;51.560;9.986;2022-12-18T07:37:17;4.57;;;3.67;;
12334;SDS011;6233;51.560;9.986;2022-12-18T07:40:18;5.83;;;4.30;;
12334;SDS011;6233;51.560;9.986;2022-12-18T07:43:20;5.60;;;4.03;;
12334;SDS011;6233;51.560;9.986;2022-12-18T07:46:24;4.40;;;4.00;;
12334;SDS011;6233;51.560;9.986;2022-12-18T07:49:27;5.23;;;3.93;;
12334;SDS011;6233;51.560;9.986;2022-12-18T07:52:28;4.77;;;3.53;;
12334;SDS011;6233;51.560;9.986;2022-12-18T07:55:31;4.60;;;4.10;;
12334;SDS011;6233;51.560;9.986;2022-12-18T07:58:53;4.57;;;3.87;;
12334;SDS011;6233;51.560;9.986;2022-12-18T08:01:55;4.47;;;3.80;;
12334;SDS011;6233;51.560;9.986;2022-12-18T08:04:57;5.47;;;3.70;;
12334;SDS011;6233;51.560;9.986;2022-12-18T08:07:59;4.20;;;3.57;;
12334;SDS011;6233;51.560;9.986;2022-12-18T08:11:01;5.50;;;4.27;;
12334;SDS011;6233;51.560;9.986;2022-12-18T08:14:03;4.50;;;3.73;;
12334;SDS011;6233;51.560;9.986;2022-12-18T08:17:05;4.53;;;3.67;;
12334;SDS011;6233;51.560;9.986;2022-12-18T08:20:07;3.17;;;2.83;;
12334;SDS011;6233;51.560;9.986;2022-12-18T08:23:09;4.83;;;3.70;;
12334;SDS011;6233;51.560;9.986;2022-12-18T08:26:11;4.60;;;3.70;;
12334;SDS011;6233;51.560;9.986;2022-12-18T08:29:13;4.50;;;3.77;;
12334;SDS011;6233;51.560;9.986;2022-12-18T08:32:21;3.57;;;3.20;;
12334;SDS011;6233;51.560;9.986;2022-12-18T08:35:26;4.97;;;3.03;;
12334;SDS011;6233;51.560;9.986;2022-12-18T08:38:38;4.33;;;2.90;;
12334;SDS011;6233;51.560;9.986;2022-12-18T08:41:39;4.33;;;3.40;;
12334;SDS011;6233;51.560;9.986;2022-12-18T08:44:41;6.17;;;4.10;;
12334;SDS011;6233;51.560;9.986;2022-12-18T08:47:58;5.07;;;4.17;;
12334;SDS011;6233;51.560;9.986;2022-12-18T08:51:44;5.40;;;3.50;;
12334;SDS011;6233;51.560;9.986;2022-12-18T08:54:46;4.20;;;3.20;;
12334;SDS011;6233;51.560;9.986;2022-12-18T08:57:50;3.63;;;3.00;;
12334;SDS011;6233;51.560;9.986;2022-12-18T09:00:52;4.83;;;2.90;;
12334;SDS011;6233;51.560;9.986;2022-12-18T09:04:03;4.97;;;3.30;;
12334;SDS011;6233;51.560;9.986;2022-12-18T09:07:07;4.27;;;2.87;;
12334;SDS011;6233;51.560;9.986;2022-12-18T09:10:10;4.07;;;3.00;;
12334;SDS011;6233;51.560;9.986;2022-12-18T09:13:15;4.30;;;2.33;;
12334;SDS011;6233;51.560;9.986;2022-12-18T09:16:18;2.70;;;2.50;;
12334;SDS011;6233;51.560;9.986;2022-12-18T09:19:20;4.13;;;2.57;;
12334;SDS011;6233;51.560;9.986;2022-12-18T09:22:22;3.53;;;2.73;;
12334;SDS011;6233;51.560;9.986;2022-12-18T09:25:24;5.60;;;2.97;;
12334;SDS011;6233;51.560;9.986;2022-12-18T09:28:26;3.47;;;2.47;;
12334;SDS011;6233;51.560;9.986;2022-12-18T09:31:28;4.57;;;3.20;;
12334;SDS011;6233;51.560;9.986;2022-12-18T09:34:30;4.77;;;2.87;;
12334;SDS011;6233;51.560;9.986;2022-12-18T09:37:31;3.53;;;2.80;;
12334;SDS011;6233;51.560;9.986;2022-12-18T09:40:40;3.20;;;2.70;;
12334;SDS011;6233;51.560;9.986;2022-12-18T09:43:50;2.90;;;2.60;;
12334;SDS011;6233;51.560;9.986;2022-12-18T09:47:01;4.30;;;2.90;;
12334;SDS011;6233;51.560;9.986;2022-12-18T09:50:30;4.10;;;2.87;;
12334;SDS011;6233;51.560;9.986;2022-12-18T09:53:36;4.13;;;3.10;;
12334;SDS011;6233;51.560;9.986;2022-12-18T09:56:42;3.73;;;2.63;;
12334;SDS011;6233;51.560;9.986;2022-12-18T09:59:46;3.57;;;3.07;;
12334;SDS011;6233;51.560;9.986;2022-12-18T10:03:00;3.47;;;2.80;;
12334;SDS011;6233;51.560;9.986;2022-12-18T10:06:14;4.50;;;3.23;;
12334;SDS011;6233;51.560;9.986;2022-12-18T10:16:12;3.97;;;2.50;;
12334;SDS011;6233;51.560;9.986;2022-12-18T10:19:51;5.40;;;3.50;;
12334;SDS011;6233;51.560;9.986;2022-12-18T10:23:03;2.90;;;2.50;;
12334;SDS011;6233;51.560;9.986;2022-12-18T10:26:18;3.30;;;2.70;;
12334;SDS011;6233;51.560;9.986;2022-12-18T10:29:21;3.53;;;2.87;;
12334;SDS011;6233;51.560;9.986;2022-12-18T10:32:27;3.17;;;2.77;;
12334;SDS011;6233;51.560;9.986;2022-12-18T10:35:30;3.77;;;2.80;;
12334;SDS011;6233;51.560;9.986;2022-12-18T10:38:32;3.80;;;2.63;;
12334;SDS011;6233;51.560;9.986;2022-12-18T10:41:33;3.37;;;2.73;;
12334;SDS011;6233;51.560;9.986;2022-12-18T10:44:35;5.07;;;3.33;;
12334;SDS011;6233;51.560;9.986;2022-12-18T10:47:41;3.47;;;2.70;;
12334;SDS011;6233;51.560;9.986;2022-12-18T10:50:46;3.00;;;2.70;;
12334;SDS011;6233;51.560;9.986;2022-12-18T11:00:39;3.13;;;2.70;;
12334;SDS011;6233;51.560;9.986;2022-12-18T11:03:44;4.40;;;2.70;;
12334;SDS011;6233;51.560;9.986;2022-12-18T11:07:03;2.37;;;2.17;;
12334;SDS011;6233;51.560;9.986;2022-12-18T11:10:14;3.63;;;2.77;;
12334;SDS011;6233;51.560;9.986;2022-12-18T11:13:23;3.53;;;2.70;;
12334;SDS011;6233;51.560;9.986;2022-12-18T11:16:28;3.67;;;2.80;;
12334;SDS011;6233;51.560;9.986;2022-12-18T11:19:36;4.20;;;3.30;;
12334;SDS011;6233;51.560;9.986;2022-12-18T11:22:41;4.47;;;2.80;;
12334;SDS011;6233;51.560;9.986;2022-12-18T11:25:50;4.23;;;2.53;;
12334;SDS011;6233;51.560;9.986;2022-12-18T11:29:31;3.50;;;3.00;;
12334;SDS011;6233;51.560;9.986;2022-12-18T11:32:31;3.70;;;3.03;;
12334;SDS011;6233;51.560;9.986;2022-12-18T11:35:38;4.20;;;3.37;;
12334;SDS011;6233;51.560;9.986;2022-12-18T11:38:56;4.77;;;3.17;;
12334;SDS011;6233;51.560;9.986;2022-12-18T11:42:14;2.83;;;2.63;;
12334;SDS011;6233;51.560;9.986;2022-12-18T11:45:28;3.87;;;2.63;;
12334;SDS011;6233;51.560;9.986;2022-12-18T11:48:37;5.40;;;3.20;;
12334;SDS011;6233;51.560;9.986;2022-12-18T11:55:04;3.93;;;3.17;;
12334;SDS011;6233;51.560;9.986;2022-12-18T11:58:15;5.87;;;3.20;;
12334;SDS011;6233;51.560;9.986;2022-12-18T12:01:24;3.93;;;3.40;;
12334;SDS011;6233;51.560;9.986;2022-12-18T12:04:40;4.97;;;3.37;;
12334;SDS011;6233;51.560;9.986;2022-12-18T12:24:45;2.90;;;2.60;;
12334;SDS011;6233;51.560;9.986;2022-12-18T12:28:02;3.57;;;2.70;;
12334;SDS011;6233;51.560;9.986;2022-12-18T12:35:05;4.70;;;3.30;;
12334;SDS011;6233;51.560;9.986;2022-12-18T12:41:52;6.37;;;4.67;;
12334;SDS011;6233;51.560;9.986;2022-12-18T12:45:17;5.97;;;4.90;;
12334;SDS011;6233;51.560;9.986;2022-12-18T12:51:40;5.80;;;4.87;;
12334;SDS011;6233;51.560;9.986;2022-12-18T12:54:45;6.67;;;4.87;;
12334;SDS011;6233;51.560;9.986;2022-12-18T13:07:41;6.27;;;5.63;;
12334;SDS011;6233;51.560;9.986;2022-12-18T13:10:55;7.23;;;5.30;;
12334;SDS011;6233;51.560;9.986;2022-12-18T13:14:20;6.97;;;5.27;;
12334;SDS011;6233;51.560;9.986;2022-12-18T13:17:30;8.47;;;5.70;;
12334;SDS011;6233;51.560;9.986;2022-12-18T13:20:33;7.33;;;5.20;;
12334;SDS011;6233;51.560;9.986;2022-12-18T13:23:38;7.60;;;5.20;;
12334;SDS011;6233;51.560;9.986;2022-12-18T13:26:41;7.80;;;5.93;;
12334;SDS011;6233;51.560;9.986;2022-12-18T13:29:44;7.57;;;6.00;;
12334;SDS011;6233;51.560;9.986;2022-12-18T13:32:47;9.67;;;6.87;;
12334;SDS011;6233;51.560;9.986;2022-12-18T13:36:09;9.67;;;7.07;;
12334;SDS011;6233;51.560;9.986;2022-12-18T13:39:37;9.37;;;6.70;;
12334;SDS011;6233;51.560;9.986;2022-12-18T13:42:39;9.30;;;7.13;;
12334;SDS011;6233;51.560;9.986;2022-12-18T13:46:17;11.37;;;6.87;;
12334;SDS011;6233;51.560;9.986;2022-12-18T13:52:34;9.87;;;6.77;;
12334;SDS011;6233;51.560;9.986;2022-12-18T13:55:38;7.97;;;5.90;;
12334;SDS011;6233;51.560;9.986;2022-12-18T13:58:46;7.07;;;5.37;;
12334;SDS011;6233;51.560;9.986;2022-12-18T14:02:16;6.90;;;5.53;;
12334;SDS011;6233;51.560;9.986;2022-12-18T14:08:36;7.03;;;5.10;;
12334;SDS011;6233;51.560;9.986;2022-12-18T14:11:45;5.50;;;5.00;;
12334;SDS011;6233;51.560;9.986;2022-12-18T14:14:49;6.87;;;4.93;;
12334;SDS011;6233;51.560;9.986;2022-12-18T14:17:57;6.20;;;4.87;;
12334;SDS011;6233;51.560;9.986;2022-12-18T14:21:03;7.23;;;5.77;;
12334;SDS011;6233;51.560;9.986;2022-12-18T14:24:16;8.93;;;7.30;;
12334;SDS011;6233;51.560;9.986;2022-12-18T14:27:22;10.07;;;7.17;;
12334;SDS011;6233;51.560;9.986;2022-12-18T14:30:26;7.67;;;5.97;;
12334;SDS011;6233;51.560;9.986;2022-12-18T14:33:31;8.30;;;6.73;;
12334;SDS011;6233;51.560;9.986;2022-12-18T14:36:32;7.47;;;5.53;;
12334;SDS011;6233;51.560;9.986;2022-12-18T14:39:34;7.60;;;6.13;;
12334;SDS011;6233;51.560;9.986;2022-12-18T14:42:35;8.40;;;5.70;;
12334;SDS011;6233;51.560;9.986;2022-12-18T14:45:44;6.90;;;5.70;;
12334;SDS011;6233;51.560;9.986;2022-12-18T14:48:47;8.77;;;5.73;;
12334;SDS011;6233;51.560;9.986;2022-12-18T14:51:50;7.97;;;5.27;;
12334;SDS011;6233;51.560;9.986;2022-12-18T14:54:57;9.57;;;5.77;;
12334;SDS011;6233;51.560;9.986;2022-12-18T14:57:59;7.50;;;5.23;;
12334;SDS011;6233;51.560;9.986;2022-12-18T15:01:00;5.47;;;4.83;;
12334;SDS011;6233;51.560;9.986;2022-12-18T15:04:03;8.13;;;5.70;;
12334;SDS011;6233;51.560;9.986;2022-12-18T15:07:23;7.33;;;5.73;;
12334;SDS011;6233;51.560;9.986;2022-12-18T15:13:28;8.13;;;5.63;;
12334;SDS011;6233;51.560;9.986;2022-12-18T15:16:30;7.80;;;5.67;;
12334;SDS011;6233;51.560;9.986;2022-12-18T15:19:34;15.17;;;10.73;;
12334;SDS011;6233;51.560;9.986;2022-12-18T15:22:42;7.30;;;5.63;;
12334;SDS011;6233;51.560;9.986;2022-12-18T15:25:49;5.93;;;4.97;;
12334;SDS011;6233;51.560;9.986;2022-12-18T15:29:00;6.10;;;4.73;;
12334;SDS011;6233;51.560;9.986;2022-12-18T15:32:05;6.43;;;5.27;;
12334;SDS011;6233;51.560;9.986;2022-12-18T15:35:24;7.43;;;5.77;;
12334;SDS011;6233;51.560;9.986;2022-12-18T15:38:26;6.93;;;5.03;;
12334;SDS011;6233;51.560;9.986;2022-12-18T15:41:30;9.00;;;5.37;;
12334;SDS011;6233;51.560;9.986;2022-12-18T15:44:36;6.00;;;5.07;;
12334;SDS011;6233;51.560;9.986;2022-12-18T15:47:38;7.50;;;5.33;;
12334;SDS011;6233;51.560;9.986;2022-12-18T15:50:40;8.83;;;5.53;;
12334;SDS011;6233;51.560;9.986;2022-12-18T15:53:42;6.47;;;5.13;;
12334;SDS011;6233;51.560;9.986;2022-12-18T15:56:45;8.80;;;5.57;;
12334;SDS011;6233;51.560;9.986;2022-12-18T16:00:05;7.63;;;5.53;;
12334;SDS011;6233;51.560;9.986;2022-12-18T16:03:08;7.53;;;5.77;;
12334;SDS011;6233;51.560;9.986;2022-12-18T16:06:10;7.33;;;5.13;;
12334;SDS011;6233;51.560;9.986;2022-12-18T16:09:12;7.77;;;4.70;;
12334;SDS011;6233;51.560;9.986;2022-12-18T16:12:18;8.33;;;5.30;;
12334;SDS011;6233;51.560;9.986;2022-12-18T16:15:22;8.77;;;5.40;;
12334;SDS011;6233;51.560;9.986;2022-12-18T16:18:25;6.47;;;5.10;;
12334;SDS011;6233;51.560;9.986;2022-12-18T16:21:26;6.03;;;5.20;;
12334;SDS011;6233;51.560;9.986;2022-12-18T16:24:34;7.37;;;5.43;;
12334;SDS011;6233;51.560;9.986;2022-12-18T16:27:37;7.50;;;5.53;;
12334;SDS011;6233;51.560;9.986;2022-12-18T16:30:39;7.27;;;5.60;;
12334;SDS011;6233;51.560;9.986;2022-12-18T16:33:41;8.23;;;5.50;;
12334;SDS011;6233;51.560;9.986;2022-12-18T16:36:44;7.60;;;5.30;;
12334;SDS011;6233;51.560;9.986;2022-12-18T16:39:45;7.27;;;5.60;;
12334;SDS011;6233;51.560;9.986;2022-12-18T16:42:47;7.67;;;5.63;;
12334;SDS011;6233;51.560;9.986;2022-12-18T16:45:49;8.77;;;6.00;;
12334;SDS011;6233;51.560;9.986;2022-12-18T16:48:53;8.43;;;5.77;;
12334;SDS011;6233;51.560;9.986;2022-12-18T16:51:54;7.37;;;5.53;;
12334;SDS011;6233;51.560;9.986;2022-12-18T16:54:56;10.20;;;5.93;;
12334;SDS011;6233;51.560;9.986;2022-12-18T16:57:58;7.00;;;5.63;;
12334;SDS011;6233;51.560;9.986;2022-12-18T17:01:00;8.60;;;6.33;;
12334;SDS011;6233;51.560;9.986;2022-12-18T17:04:03;9.30;;;6.20;;
12334;SDS011;6233;51.560;9.986;2022-12-18T17:07:07;8.90;;;6.10;;
12334;SDS011;6233;51.560;9.986;2022-12-18T17:10:09;8.20;;;6.13;;
12334;SDS011;6233;51.560;9.986;2022-12-18T17:13:10;10.03;;;6.70;;
12334;SDS011;6233;51.560;9.986;2022-12-18T17:16:12;9.47;;;6.20;;
12334;SDS011;6233;51.560;9.986;2022-12-18T17:19:14;11.53;;;6.90;;
12334;SDS011;6233;51.560;9.986;2022-12-18T17:22:18;9.93;;;5.70;;
12334;SDS011;6233;51.560;9.986;2022-12-18T17:25:20;8.40;;;6.83;;
12334;SDS011;6233;51.560;9.986;2022-12-18T17:28:24;9.83;;;6.63;;
12334;SDS011;6233;51.560;9.986;2022-12-18T17:31:28;8.80;;;6.83;;
12334;SDS011;6233;51.560;9.986;2022-12-18T17:34:30;11.40;;;7.00;;
12334;SDS011;6233;51.560;9.986;2022-12-18T17:37:32;10.27;;;7.30;;
12334;SDS011;6233;51.560;9.986;2022-12-18T17:40:34;9.83;;;6.77;;
12334;SDS011;6233;51.560;9.986;2022-12-18T17:43:36;11.27;;;7.37;;
12334;SDS011;6233;51.560;9.986;2022-12-18T17:46:46;9.90;;;7.20;;
12334;SDS011;6233;51.560;9.986;2022-12-18T17:49:51;9.87;;;6.93;;
12334;SDS011;6233;51.560;9.986;2022-12-18T17:52:56;10.93;;;8.00;;
12334;SDS011;6233;51.560;9.986;2022-12-18T17:55:59;9.87;;;7.33;;
12334;SDS011;6233;51.560;9.986;2022-12-18T17:59:01;10.57;;;7.23;;
12334;SDS011;6233;51.560;9.986;2022-12-18T18:02:03;10.63;;;7.30;;
12334;SDS011;6233;51.560;9.986;2022-12-18T18:05:05;9.53;;;6.97;;
12334;SDS011;6233;51.560;9.986;2022-12-18T18:08:11;13.63;;;7.70;;
12334;SDS011;6233;51.560;9.986;2022-12-18T18:11:14;9.37;;;6.80;;
12334;SDS011;6233;51.560;9.986;2022-12-18T18:14:36;9.53;;;6.60;;
12334;SDS011;6233;51.560;9.986;2022-12-18T18:17:38;11.70;;;7.93;;
12334;SDS011;6233;51.560;9.986;2022-12-18T18:20:40;10.37;;;7.60;;
12334;SDS011;6233;51.560;9.986;2022-12-18T18:23:42;8.17;;;6.40;;
12334;SDS011;6233;51.560;9.986;2022-12-18T18:26:46;10.67;;;7.23;;
12334;SDS011;6233;51.560;9.986;2022-12-18T18:29:47;9.80;;;7.07;;
12334;SDS011;6233;51.560;9.986;2022-12-18T18:32:50;9.27;;;7.40;;
12334;SDS011;6233;51.560;9.986;2022-12-18T18:35:53;10.80;;;7.60;;
12334;SDS011;6233;51.560;9.986;2022-12-18T18:38:57;11.97;;;7.37;;
12334;SDS011;6233;51.560;9.986;2022-12-18T18:42:00;9.57;;;7.20;;
12334;SDS011;6233;51.560;9.986;2022-12-18T18:45:02;13.00;;;8.23;;
12334;SDS011;6233;51.560;9.986;2022-12-18T18:48:05;10.00;;;6.73;;
12334;SDS011;6233;51.560;9.986;2022-12-18T18:51:10;10.83;;;7.40;;
12334;SDS011;6233;51.560;9.986;2022-12-18T18:54:22;12.10;;;7.93;;
12334;SDS011;6233;51.560;9.986;2022-12-18T18:57:24;11.47;;;7.23;;
12334;SDS011;6233;51.560;9.986;2022-12-18T19:00:30;10.10;;;7.43;;
12334;SDS011;6233;51.560;9.986;2022-12-18T19:03:32;11.53;;;7.20;;
12334;SDS011;6233;51.560;9.986;2022-12-18T19:06:35;12.97;;;7.60;;
12334;SDS011;6233;51.560;9.986;2022-12-18T19:09:38;11.53;;;7.33;;
12334;SDS011;6233;51.560;9.986;2022-12-18T19:12:40;11.87;;;7.80;;
12334;SDS011;6233;51.560;9.986;2022-12-18T19:16:06;9.27;;;6.40;;
12334;SDS011;6233;51.560;9.986;2022-12-18T19:19:12;12.37;;;8.40;;
12334;SDS011;6233;51.560;9.986;2022-12-18T19:22:14;11.27;;;7.23;;
12334;SDS011;6233;51.560;9.986;2022-12-18T19:25:15;11.60;;;7.17;;
12334;SDS011;6233;51.560;9.986;2022-12-18T19:28:18;13.37;;;7.60;;
12334;SDS011;6233;51.560;9.986;2022-12-18T19:31:25;12.97;;;7.63;;
12334;SDS011;6233;51.560;9.986;2022-12-18T19:34:36;12.23;;;7.47;;
12334;SDS011;6233;51.560;9.986;2022-12-18T19:37:38;12.20;;;8.23;;
12334;SDS011;6233;51.560;9.986;2022-12-18T19:40:40;11.60;;;8.07;;
12334;SDS011;6233;51.560;9.986;2022-12-18T19:43:42;13.60;;;8.83;;
12334;SDS011;6233;51.560;9.986;2022-12-18T19:46:44;11.53;;;7.83;;
12334;SDS011;6233;51.560;9.986;2022-12-18T19:49:49;11.00;;;7.07;;
12334;SDS011;6233;51.560;9.986;2022-12-18T19:52:51;11.50;;;8.07;;
12334;SDS011;6233;51.560;9.986;2022-12-18T19:55:53;13.53;;;8.33;;
12334;SDS011;6233;51.560;9.986;2022-12-18T19:58:58;11.83;;;7.93;;
12334;SDS011;6233;51.560;9.986;2022-12-18T20:02:00;10.73;;;7.23;;
12334;SDS011;6233;51.560;9.986;2022-12-18T20:05:03;11.07;;;7.17;;
12334;SDS011;6233;51.560;9.986;2022-12-18T20:08:08;10.97;;;7.47;;
12334;SDS011;6233;51.560;9.986;2022-12-18T20:11:10;10.90;;;7.37;;
12334;SDS011;6233;51.560;9.986;2022-12-18T20:14:13;12.53;;;8.27;;